sensor_id;sensor_type;location;lat;lon;timestamp;P1;durP1;ratioP1;P2;durP2;ratioP2
21721;SDS011;11023;48.274;7.794;2023-11-21T00:02:20;2.88;;;0.40;;
21721;SDS011;11023;48.274;7.794;2023-11-21T00:04:46;3.80;;;0.68;;
21721;SDS011;11023;48.274;7.794;2023-11-21T00:07:13;0.50;;;0.50;;
21721;SDS011;11023;48.274;7.794;2023-11-21T00:09:39;1.13;;;0.57;;
21721;SDS011;11023;48.274;7.794;2023-11-21T00:12:06;2.28;;;0.70;;
21721;SDS011;11023;48.274;7.794;2023-11-21T00:14:38;1.17;;;0.63;;
21721;SDS011;11023;48.274;7.794;2023-11-21T00:17:21;4.47;;;0.82;;
21721;SDS011;11023;48.274;7.794;2023-11-21T00:19:46;4.28;;;0.73;;
21721;SDS011;11023;48.274;7.794;2023-11-21T00:22:12;2.05;;;0.90;;
21721;SDS011;11023;48.274;7.794;2023-11-21T00:24:38;1.95;;;0.50;;
21721;SDS011;11023;48.274;7.794;2023-11-21T00:27:03;1.90;;;0.57;;
21721;SDS011;11023;48.274;7.794;2023-11-21T00:29:29;2.72;;;0.43;;
21721;SDS011;11023;48.274;7.794;2023-11-21T00:31:55;3.00;;;0.47;;
21721;SDS011;11023;48.274;7.794;2023-11-21T00:34:21;3.15;;;0.63;;
21721;SDS011;11023;48.274;7.794;2023-11-21T00:36:47;1.05;;;0.43;;
21721;SDS011;11023;48.274;7.794;2023-11-21T00:39:12;1.70;;;0.80;;
21721;SDS011;11023;48.274;7.794;2023-11-21T00:41:38;2.45;;;0.70;;
21721;SDS011;11023;48.274;7.794;2023-11-21T00:44:04;4.65;;;0.77;;
21721;SDS011;11023;48.274;7.794;2023-11-21T00:46:31;6.40;;;1.27;;
21721;SDS011;11023;48.274;7.794;2023-11-21T00:48:57;0.93;;;0.63;;
21721;SDS011;11023;48.274;7.794;2023-11-21T00:51:23;1.58;;;0.47;;
21721;SDS011;11023;48.274;7.794;2023-11-21T00:53:49;2.30;;;0.57;;
21721;SDS011;11023;48.274;7.794;2023-11-21T00:56:15;4.50;;;0.70;;
21721;SDS011;11023;48.274;7.794;2023-11-21T00:58:41;1.77;;;0.57;;
21721;SDS011;11023;48.274;7.794;2023-11-21T01:01:14;2.25;;;0.55;;
21721;SDS011;11023;48.274;7.794;2023-11-21T01:03:40;2.50;;;0.75;;
21721;SDS011;11023;48.274;7.794;2023-11-21T01:06:06;4.95;;;1.10;;
21721;SDS011;11023;48.274;7.794;2023-11-21T01:08:34;1.83;;;0.65;;
21721;SDS011;11023;48.274;7.794;2023-11-21T01:11:01;1.95;;;0.60;;
21721;SDS011;11023;48.274;7.794;2023-11-21T01:13:27;2.53;;;0.60;;
21721;SDS011;11023;48.274;7.794;2023-11-21T01:15:53;1.33;;;0.70;;
21721;SDS011;11023;48.274;7.794;2023-11-21T01:18:19;3.35;;;0.70;;
21721;SDS011;11023;48.274;7.794;2023-11-21T01:20:46;3.38;;;0.45;;
21721;SDS011;11023;48.274;7.794;2023-11-21T01:23:12;3.70;;;0.52;;
21721;SDS011;11023;48.274;7.794;2023-11-21T01:25:39;2.30;;;0.60;;
21721;SDS011;11023;48.274;7.794;2023-11-21T01:28:06;2.97;;;0.47;;
21721;SDS011;11023;48.274;7.794;2023-11-21T01:30:32;1.83;;;0.40;;
21721;SDS011;11023;48.274;7.794;2023-11-21T01:32:59;3.17;;;0.50;;
21721;SDS011;11023;48.274;7.794;2023-11-21T01:35:25;10.27;;;1.08;;
21721;SDS011;11023;48.274;7.794;2023-11-21T01:37:50;1.83;;;0.57;;
21721;SDS011;11023;48.274;7.794;2023-11-21T01:40:16;0.65;;;0.50;;
21721;SDS011;11023;48.274;7.794;2023-11-21T01:42:43;3.03;;;0.60;;
21721;SDS011;11023;48.274;7.794;2023-11-21T01:45:09;0.80;;;0.45;;
21721;SDS011;11023;48.274;7.794;2023-11-21T01:47:37;1.48;;;0.40;;
21721;SDS011;11023;48.274;7.794;2023-11-21T01:50:05;3.88;;;0.50;;
21721;SDS011;11023;48.274;7.794;2023-11-21T01:52:38;0.98;;;0.30;;
21721;SDS011;11023;48.274;7.794;2023-11-21T01:55:06;5.60;;;0.50;;
21721;SDS011;11023;48.274;7.794;2023-11-21T01:57:34;0.98;;;0.28;;
21721;SDS011;11023;48.274;7.794;2023-11-21T02:00:02;1.75;;;0.30;;
21721;SDS011;11023;48.274;7.794;2023-11-21T02:02:46;3.67;;;0.73;;
21721;SDS011;11023;48.274;7.794;2023-11-21T02:05:16;0.70;;;0.55;;
21721;SDS011;11023;48.274;7.794;2023-11-21T02:07:43;1.50;;;0.50;;
21721;SDS011;11023;48.274;7.794;2023-11-21T02:10:13;0.88;;;0.30;;
21721;SDS011;11023;48.274;7.794;2023-11-21T02:12:40;4.32;;;0.45;;
21721;SDS011;11023;48.274;7.794;2023-11-21T02:15:12;1.40;;;0.30;;
21721;SDS011;11023;48.274;7.794;2023-11-21T02:17:45;0.73;;;0.20;;
21721;SDS011;11023;48.274;7.794;2023-11-21T02:20:16;3.55;;;0.82;;
21721;SDS011;11023;48.274;7.794;2023-11-21T02:25:29;2.40;;;0.47;;
21721;SDS011;11023;48.274;7.794;2023-11-21T02:27:57;1.25;;;0.30;;
21721;SDS011;11023;48.274;7.794;2023-11-21T02:30:24;0.85;;;0.35;;
21721;SDS011;11023;48.274;7.794;2023-11-21T02:32:51;1.02;;;0.43;;
21721;SDS011;11023;48.274;7.794;2023-11-21T02:35:22;0.77;;;0.22;;
21721;SDS011;11023;48.274;7.794;2023-11-21T02:37:50;0.80;;;0.20;;
21721;SDS011;11023;48.274;7.794;2023-11-21T02:40:17;1.45;;;0.65;;
21721;SDS011;11023;48.274;7.794;2023-11-21T02:42:43;1.08;;;0.38;;
21721;SDS011;11023;48.274;7.794;2023-11-21T02:45:11;1.95;;;0.30;;
21721;SDS011;11023;48.274;7.794;2023-11-21T02:47:39;1.05;;;0.50;;
21721;SDS011;11023;48.274;7.794;2023-11-21T02:50:09;2.92;;;0.90;;
21721;SDS011;11023;48.274;7.794;2023-11-21T02:52:35;1.88;;;0.57;;
21721;SDS011;11023;48.274;7.794;2023-11-21T02:55:02;1.50;;;0.38;;
21721;SDS011;11023;48.274;7.794;2023-11-21T02:57:28;0.47;;;0.20;;
21721;SDS011;11023;48.274;7.794;2023-11-21T02:59:54;0.43;;;0.30;;
21721;SDS011;11023;48.274;7.794;2023-11-21T03:02:21;1.30;;;0.43;;
21721;SDS011;11023;48.274;7.794;2023-11-21T03:04:47;2.60;;;0.40;;
21721;SDS011;11023;48.274;7.794;2023-11-21T03:07:17;1.60;;;0.17;;
21721;SDS011;11023;48.274;7.794;2023-11-21T03:09:44;3.78;;;0.43;;
21721;SDS011;11023;48.274;7.794;2023-11-21T03:12:12;0.60;;;0.22;;
21721;SDS011;11023;48.274;7.794;2023-11-21T03:14:39;0.80;;;0.38;;
21721;SDS011;11023;48.274;7.794;2023-11-21T03:17:05;0.20;;;0.20;;
21721;SDS011;11023;48.274;7.794;2023-11-21T03:19:33;0.75;;;0.32;;
21721;SDS011;11023;48.274;7.794;2023-11-21T03:21:58;0.88;;;0.22;;
21721;SDS011;11023;48.274;7.794;2023-11-21T03:24:24;1.00;;;0.20;;
21721;SDS011;11023;48.274;7.794;2023-11-21T03:26:51;2.08;;;0.45;;
21721;SDS011;11023;48.274;7.794;2023-11-21T03:29:19;1.42;;;0.47;;
21721;SDS011;11023;48.274;7.794;2023-11-21T03:31:45;0.32;;;0.20;;
21721;SDS011;11023;48.274;7.794;2023-11-21T03:34:22;0.10;;;0.10;;
21721;SDS011;11023;48.274;7.794;2023-11-21T03:36:52;1.55;;;0.40;;
21721;SDS011;11023;48.274;7.794;2023-11-21T03:39:19;2.50;;;0.10;;
21721;SDS011;11023;48.274;7.794;2023-11-21T03:41:46;1.20;;;0.13;;
21721;SDS011;11023;48.274;7.794;2023-11-21T03:44:12;3.80;;;0.20;;
21721;SDS011;11023;48.274;7.794;2023-11-21T03:46:39;0.57;;;0.17;;
21721;SDS011;11023;48.274;7.794;2023-11-21T03:49:04;2.45;;;0.30;;
21721;SDS011;11023;48.274;7.794;2023-11-21T03:51:30;0.50;;;0.30;;
21721;SDS011;11023;48.274;7.794;2023-11-21T03:53:56;0.82;;;0.50;;
21721;SDS011;11023;48.274;7.794;2023-11-21T03:56:22;0.10;;;0.10;;
21721;SDS011;11023;48.274;7.794;2023-11-21T03:58:48;0.57;;;0.13;;
21721;SDS011;11023;48.274;7.794;2023-11-21T04:01:21;0.10;;;0.10;;
21721;SDS011;11023;48.274;7.794;2023-11-21T04:03:48;0.80;;;0.30;;
21721;SDS011;11023;48.274;7.794;2023-11-21T04:06:18;0.55;;;0.25;;
21721;SDS011;11023;48.274;7.794;2023-11-21T04:08:45;1.38;;;0.40;;
21721;SDS011;11023;48.274;7.794;2023-11-21T04:11:12;0.50;;;0.17;;
21721;SDS011;11023;48.274;7.794;2023-11-21T04:13:38;2.40;;;0.70;;
21721;SDS011;11023;48.274;7.794;2023-11-21T04:16:06;1.02;;;0.30;;
21721;SDS011;11023;48.274;7.794;2023-11-21T04:18:33;2.03;;;0.25;;
21721;SDS011;11023;48.274;7.794;2023-11-21T04:21:00;1.08;;;0.28;;
21721;SDS011;11023;48.274;7.794;2023-11-21T04:23:27;2.65;;;0.50;;
21721;SDS011;11023;48.274;7.794;2023-11-21T04:25:53;2.13;;;0.30;;
21721;SDS011;11023;48.274;7.794;2023-11-21T04:28:22;0.85;;;0.30;;
21721;SDS011;11023;48.274;7.794;2023-11-21T04:30:51;2.83;;;0.30;;
21721;SDS011;11023;48.274;7.794;2023-11-21T04:33:18;0.50;;;0.30;;
21721;SDS011;11023;48.274;7.794;2023-11-21T04:35:44;1.35;;;0.30;;
21721;SDS011;11023;48.274;7.794;2023-11-21T04:38:10;1.77;;;0.20;;
21721;SDS011;11023;48.274;7.794;2023-11-21T04:40:36;3.42;;;0.45;;
21721;SDS011;11023;48.274;7.794;2023-11-21T04:43:01;1.23;;;0.25;;
21721;SDS011;11023;48.274;7.794;2023-11-21T04:45:29;0.17;;;0.13;;
21721;SDS011;11023;48.274;7.794;2023-11-21T04:47:54;1.00;;;0.40;;
21721;SDS011;11023;48.274;7.794;2023-11-21T04:50:21;1.00;;;0.20;;
21721;SDS011;11023;48.274;7.794;2023-11-21T04:52:46;2.92;;;0.47;;
21721;SDS011;11023;48.274;7.794;2023-11-21T04:55:12;3.03;;;0.30;;
21721;SDS011;11023;48.274;7.794;2023-11-21T04:57:38;1.08;;;0.20;;
21721;SDS011;11023;48.274;7.794;2023-11-21T05:00:06;2.22;;;0.20;;
21721;SDS011;11023;48.274;7.794;2023-11-21T05:02:34;1.10;;;0.30;;
21721;SDS011;11023;48.274;7.794;2023-11-21T05:05:00;0.52;;;0.28;;
21721;SDS011;11023;48.274;7.794;2023-11-21T05:07:26;0.20;;;0.20;;
21721;SDS011;11023;48.274;7.794;2023-11-21T05:09:55;2.05;;;0.38;;
21721;SDS011;11023;48.274;7.794;2023-11-21T05:12:24;1.63;;;0.43;;
21721;SDS011;11023;48.274;7.794;2023-11-21T05:14:50;0.75;;;0.38;;
21721;SDS011;11023;48.274;7.794;2023-11-21T05:17:16;0.38;;;0.20;;
21721;SDS011;11023;48.274;7.794;2023-11-21T05:19:42;1.48;;;0.40;;
21721;SDS011;11023;48.274;7.794;2023-11-21T05:22:10;0.50;;;0.20;;
21721;SDS011;11023;48.274;7.794;2023-11-21T05:24:37;0.82;;;0.20;;
21721;SDS011;11023;48.274;7.794;2023-11-21T05:27:04;2.45;;;0.73;;
21721;SDS011;11023;48.274;7.794;2023-11-21T05:29:30;7.65;;;0.68;;
21721;SDS011;11023;48.274;7.794;2023-11-21T05:31:56;0.38;;;0.20;;
21721;SDS011;11023;48.274;7.794;2023-11-21T05:34:21;2.00;;;0.45;;
21721;SDS011;11023;48.274;7.794;2023-11-21T05:36:49;0.50;;;0.30;;
21721;SDS011;11023;48.274;7.794;2023-11-21T05:39:15;0.15;;;0.15;;
21721;SDS011;11023;48.274;7.794;2023-11-21T05:41:42;1.75;;;0.52;;
21721;SDS011;11023;48.274;7.794;2023-11-21T05:44:08;0.52;;;0.30;;
21721;SDS011;11023;48.274;7.794;2023-11-21T05:46:34;2.25;;;0.45;;
21721;SDS011;11023;48.274;7.794;2023-11-21T05:49:00;1.05;;;0.28;;
21721;SDS011;11023;48.274;7.794;2023-11-21T05:51:25;0.85;;;0.30;;
21721;SDS011;11023;48.274;7.794;2023-11-21T05:53:51;2.65;;;0.40;;
21721;SDS011;11023;48.274;7.794;2023-11-21T05:56:17;1.48;;;0.50;;
21721;SDS011;11023;48.274;7.794;2023-11-21T05:58:43;2.65;;;0.52;;
21721;SDS011;11023;48.274;7.794;2023-11-21T06:01:09;0.63;;;0.40;;
21721;SDS011;11023;48.274;7.794;2023-11-21T06:03:37;1.48;;;0.40;;
21721;SDS011;11023;48.274;7.794;2023-11-21T06:06:03;0.52;;;0.38;;
21721;SDS011;11023;48.274;7.794;2023-11-21T06:08:30;0.40;;;0.40;;
21721;SDS011;11023;48.274;7.794;2023-11-21T06:10:55;0.43;;;0.30;;
21721;SDS011;11023;48.274;7.794;2023-11-21T06:13:21;0.70;;;0.45;;
21721;SDS011;11023;48.274;7.794;2023-11-21T06:15:49;3.53;;;0.40;;
21721;SDS011;11023;48.274;7.794;2023-11-21T06:18:16;1.58;;;0.50;;
21721;SDS011;11023;48.274;7.794;2023-11-21T06:20:44;5.38;;;0.52;;
21721;SDS011;11023;48.274;7.794;2023-11-21T06:23:11;6.50;;;0.40;;
21721;SDS011;11023;48.274;7.794;2023-11-21T06:25:36;1.20;;;0.60;;
21721;SDS011;11023;48.274;7.794;2023-11-21T06:28:03;2.38;;;0.70;;
21721;SDS011;11023;48.274;7.794;2023-11-21T06:30:28;0.55;;;0.50;;
21721;SDS011;11023;48.274;7.794;2023-11-21T06:32:54;1.35;;;0.82;;
21721;SDS011;11023;48.274;7.794;2023-11-21T06:35:21;2.15;;;0.65;;
21721;SDS011;11023;48.274;7.794;2023-11-21T06:37:47;1.10;;;0.52;;
21721;SDS011;11023;48.274;7.794;2023-11-21T06:40:13;1.23;;;0.50;;
21721;SDS011;11023;48.274;7.794;2023-11-21T06:42:43;2.28;;;1.13;;
21721;SDS011;11023;48.274;7.794;2023-11-21T06:45:09;2.35;;;0.70;;
21721;SDS011;11023;48.274;7.794;2023-11-21T06:47:36;0.32;;;0.30;;
21721;SDS011;11023;48.274;7.794;2023-11-21T06:50:03;1.92;;;0.55;;
21721;SDS011;11023;48.274;7.794;2023-11-21T06:52:29;1.17;;;0.52;;
21721;SDS011;11023;48.274;7.794;2023-11-21T06:54:54;0.60;;;0.40;;
21721;SDS011;11023;48.274;7.794;2023-11-21T06:57:22;0.22;;;0.22;;
21721;SDS011;11023;48.274;7.794;2023-11-21T06:59:48;0.70;;;0.50;;
21721;SDS011;11023;48.274;7.794;2023-11-21T07:02:15;0.68;;;0.40;;
21721;SDS011;11023;48.274;7.794;2023-11-21T07:04:43;0.57;;;0.38;;
21721;SDS011;11023;48.274;7.794;2023-11-21T07:07:11;0.38;;;0.32;;
21721;SDS011;11023;48.274;7.794;2023-11-21T07:09:37;0.55;;;0.25;;
21721;SDS011;11023;48.274;7.794;2023-11-21T07:12:03;0.43;;;0.32;;
21721;SDS011;11023;48.274;7.794;2023-11-21T07:14:32;0.63;;;0.40;;
21721;SDS011;11023;48.274;7.794;2023-11-21T07:17:00;0.85;;;0.40;;
21721;SDS011;11023;48.274;7.794;2023-11-21T07:19:26;0.82;;;0.50;;
21721;SDS011;11023;48.274;7.794;2023-11-21T07:21:52;3.05;;;0.68;;
21721;SDS011;11023;48.274;7.794;2023-11-21T07:24:18;0.55;;;0.55;;
21721;SDS011;11023;48.274;7.794;2023-11-21T07:26:43;1.27;;;0.40;;
21721;SDS011;11023;48.274;7.794;2023-11-21T07:29:09;0.75;;;0.50;;
21721;SDS011;11023;48.274;7.794;2023-11-21T07:31:36;0.60;;;0.50;;
21721;SDS011;11023;48.274;7.794;2023-11-21T07:34:03;0.85;;;0.55;;
21721;SDS011;11023;48.274;7.794;2023-11-21T07:36:28;1.30;;;0.60;;
21721;SDS011;11023;48.274;7.794;2023-11-21T07:38:54;0.50;;;0.40;;
21721;SDS011;11023;48.274;7.794;2023-11-21T07:41:20;1.08;;;0.50;;
21721;SDS011;11023;48.274;7.794;2023-11-21T07:43:46;2.15;;;0.52;;
21721;SDS011;11023;48.274;7.794;2023-11-21T07:46:12;2.20;;;0.75;;
21721;SDS011;11023;48.274;7.794;2023-11-21T07:48:39;0.77;;;0.50;;
21721;SDS011;11023;48.274;7.794;2023-11-21T07:51:06;0.30;;;0.30;;
21721;SDS011;11023;48.274;7.794;2023-11-21T07:53:32;0.47;;;0.28;;
21721;SDS011;11023;48.274;7.794;2023-11-21T07:55:58;2.15;;;0.75;;
21721;SDS011;11023;48.274;7.794;2023-11-21T07:58:27;0.73;;;0.35;;
21721;SDS011;11023;48.274;7.794;2023-11-21T08:00:53;2.17;;;0.57;;
21721;SDS011;11023;48.274;7.794;2023-11-21T08:03:19;0.82;;;0.57;;
21721;SDS011;11023;48.274;7.794;2023-11-21T08:05:44;1.20;;;0.70;;
21721;SDS011;11023;48.274;7.794;2023-11-21T08:08:10;2.10;;;0.60;;
21721;SDS011;11023;48.274;7.794;2023-11-21T08:10:36;0.77;;;0.47;;
21721;SDS011;11023;48.274;7.794;2023-11-21T08:13:02;2.53;;;0.50;;
21721;SDS011;11023;48.274;7.794;2023-11-21T08:15:28;0.77;;;0.50;;
21721;SDS011;11023;48.274;7.794;2023-11-21T08:17:54;0.80;;;0.50;;
21721;SDS011;11023;48.274;7.794;2023-11-21T08:20:20;0.85;;;0.73;;
21721;SDS011;11023;48.274;7.794;2023-11-21T08:22:47;1.58;;;0.70;;
21721;SDS011;11023;48.274;7.794;2023-11-21T08:25:13;2.53;;;1.00;;
21721;SDS011;11023;48.274;7.794;2023-11-21T08:27:39;1.25;;;0.90;;
21721;SDS011;11023;48.274;7.794;2023-11-21T08:30:05;1.17;;;0.70;;
21721;SDS011;11023;48.274;7.794;2023-11-21T08:32:32;1.10;;;0.80;;
21721;SDS011;11023;48.274;7.794;2023-11-21T08:35:01;0.68;;;0.60;;
21721;SDS011;11023;48.274;7.794;2023-11-21T08:37:26;1.23;;;0.60;;
21721;SDS011;11023;48.274;7.794;2023-11-21T08:39:55;0.68;;;0.50;;
21721;SDS011;11023;48.274;7.794;2023-11-21T08:42:24;1.35;;;0.85;;
21721;SDS011;11023;48.274;7.794;2023-11-21T08:44:49;2.53;;;0.80;;
21721;SDS011;11023;48.274;7.794;2023-11-21T08:47:16;1.20;;;0.50;;
21721;SDS011;11023;48.274;7.794;2023-11-21T08:49:41;0.95;;;0.82;;
21721;SDS011;11023;48.274;7.794;2023-11-21T08:52:07;0.65;;;0.60;;
21721;SDS011;11023;48.274;7.794;2023-11-21T08:54:33;3.83;;;0.50;;
21721;SDS011;11023;48.274;7.794;2023-11-21T08:56:59;0.40;;;0.40;;
21721;SDS011;11023;48.274;7.794;2023-11-21T08:59:25;0.40;;;0.38;;
21721;SDS011;11023;48.274;7.794;2023-11-21T09:01:51;0.85;;;0.68;;
21721;SDS011;11023;48.274;7.794;2023-11-21T09:04:17;0.73;;;0.40;;
21721;SDS011;11023;48.274;7.794;2023-11-21T09:06:43;0.98;;;0.57;;
21721;SDS011;11023;48.274;7.794;2023-11-21T09:09:08;2.17;;;0.73;;
21721;SDS011;11023;48.274;7.794;2023-11-21T09:11:35;0.77;;;0.47;;
21721;SDS011;11023;48.274;7.794;2023-11-21T09:14:02;2.33;;;0.40;;
21721;SDS011;11023;48.274;7.794;2023-11-21T09:16:31;1.55;;;0.52;;
21721;SDS011;11023;48.274;7.794;2023-11-21T09:18:57;5.13;;;1.20;;
21721;SDS011;11023;48.274;7.794;2023-11-21T09:21:24;0.70;;;0.60;;
21721;SDS011;11023;48.274;7.794;2023-11-21T09:23:50;0.70;;;0.70;;
21721;SDS011;11023;48.274;7.794;2023-11-21T09:26:16;1.60;;;0.88;;
21721;SDS011;11023;48.274;7.794;2023-11-21T09:28:43;3.35;;;0.93;;
21721;SDS011;11023;48.274;7.794;2023-11-21T09:31:12;1.17;;;0.93;;
21721;SDS011;11023;48.274;7.794;2023-11-21T09:33:42;2.05;;;1.08;;
21721;SDS011;11023;48.274;7.794;2023-11-21T09:36:12;1.45;;;0.77;;
21721;SDS011;11023;48.274;7.794;2023-11-21T09:38:41;1.20;;;0.70;;
21721;SDS011;11023;48.274;7.794;2023-11-21T09:41:08;1.27;;;0.63;;
21721;SDS011;11023;48.274;7.794;2023-11-21T09:43:42;0.65;;;0.55;;
21721;SDS011;11023;48.274;7.794;2023-11-21T09:46:11;0.45;;;0.45;;
21721;SDS011;11023;48.274;7.794;2023-11-21T09:48:48;1.15;;;0.60;;
21721;SDS011;11023;48.274;7.794;2023-11-21T09:51:17;0.77;;;0.28;;
21721;SDS011;11023;48.274;7.794;2023-11-21T09:53:47;0.95;;;0.40;;
21721;SDS011;11023;48.274;7.794;2023-11-21T09:56:17;0.57;;;0.30;;
21721;SDS011;11023;48.274;7.794;2023-11-21T09:58:50;3.67;;;0.75;;
21721;SDS011;11023;48.274;7.794;2023-11-21T10:01:16;3.00;;;0.70;;
21721;SDS011;11023;48.274;7.794;2023-11-21T10:03:43;0.35;;;0.35;;
21721;SDS011;11023;48.274;7.794;2023-11-21T10:06:09;0.98;;;0.57;;
21721;SDS011;11023;48.274;7.794;2023-11-21T10:08:39;1.02;;;0.50;;
21721;SDS011;11023;48.274;7.794;2023-11-21T10:11:06;1.77;;;0.68;;
21721;SDS011;11023;48.274;7.794;2023-11-21T10:13:36;1.10;;;0.47;;
21721;SDS011;11023;48.274;7.794;2023-11-21T10:16:03;0.75;;;0.60;;
21721;SDS011;11023;48.274;7.794;2023-11-21T10:18:32;0.50;;;0.50;;
21721;SDS011;11023;48.274;7.794;2023-11-21T10:20:59;2.45;;;1.00;;
21721;SDS011;11023;48.274;7.794;2023-11-21T10:23:25;1.35;;;0.88;;
21721;SDS011;11023;48.274;7.794;2023-11-21T10:25:52;3.47;;;1.10;;
21721;SDS011;11023;48.274;7.794;2023-11-21T10:28:18;0.88;;;0.50;;
21721;SDS011;11023;48.274;7.794;2023-11-21T10:30:45;2.50;;;0.70;;
21721;SDS011;11023;48.274;7.794;2023-11-21T10:33:15;3.22;;;1.00;;
21721;SDS011;11023;48.274;7.794;2023-11-21T10:38:16;2.60;;;0.50;;
21721;SDS011;11023;48.274;7.794;2023-11-21T10:40:43;2.15;;;0.50;;
21721;SDS011;11023;48.274;7.794;2023-11-21T10:43:10;1.38;;;0.45;;
21721;SDS011;11023;48.274;7.794;2023-11-21T10:45:39;1.50;;;0.60;;
21721;SDS011;11023;48.274;7.794;2023-11-21T10:48:09;0.68;;;0.60;;
21721;SDS011;11023;48.274;7.794;2023-11-21T10:50:36;2.33;;;1.00;;
21721;SDS011;11023;48.274;7.794;2023-11-21T10:53:03;1.42;;;0.85;;
21721;SDS011;11023;48.274;7.794;2023-11-21T10:55:29;1.92;;;1.02;;
21721;SDS011;11023;48.274;7.794;2023-11-21T10:57:57;1.38;;;0.70;;
21721;SDS011;11023;48.274;7.794;2023-11-21T11:00:25;2.15;;;0.70;;
21721;SDS011;11023;48.274;7.794;2023-11-21T11:02:52;1.67;;;0.90;;
21721;SDS011;11023;48.274;7.794;2023-11-21T11:05:22;1.67;;;1.00;;
21721;SDS011;11023;48.274;7.794;2023-11-21T11:07:58;1.13;;;1.00;;
21721;SDS011;11023;48.274;7.794;2023-11-21T11:10:27;2.50;;;1.05;;
21721;SDS011;11023;48.274;7.794;2023-11-21T11:12:54;1.15;;;0.90;;
21721;SDS011;11023;48.274;7.794;2023-11-21T11:15:22;1.20;;;1.10;;
21721;SDS011;11023;48.274;7.794;2023-11-21T11:17:48;1.10;;;0.85;;
21721;SDS011;11023;48.274;7.794;2023-11-21T11:20:16;3.75;;;1.20;;
21721;SDS011;11023;48.274;7.794;2023-11-21T11:28:14;0.82;;;0.80;;
21721;SDS011;11023;48.274;7.794;2023-11-21T11:33:52;1.33;;;0.98;;
21721;SDS011;11023;48.274;7.794;2023-11-21T11:36:26;1.10;;;0.98;;
21721;SDS011;11023;48.274;7.794;2023-11-21T11:38:59;2.13;;;1.25;;
21721;SDS011;11023;48.274;7.794;2023-11-21T11:41:27;1.08;;;0.93;;
21721;SDS011;11023;48.274;7.794;2023-11-21T11:44:02;2.15;;;1.05;;
21721;SDS011;11023;48.274;7.794;2023-11-21T11:46:41;1.60;;;1.08;;
21721;SDS011;11023;48.274;7.794;2023-11-21T11:49:10;1.48;;;1.05;;
21721;SDS011;11023;48.274;7.794;2023-11-21T11:51:48;2.00;;;1.20;;
21721;SDS011;11023;48.274;7.794;2023-11-21T11:54:13;2.67;;;1.10;;
21721;SDS011;11023;48.274;7.794;2023-11-21T11:56:39;5.38;;;1.50;;
21721;SDS011;11023;48.274;7.794;2023-11-21T11:59:05;3.13;;;1.23;;
21721;SDS011;11023;48.274;7.794;2023-11-21T12:01:34;1.48;;;0.95;;
21721;SDS011;11023;48.274;7.794;2023-11-21T12:06:59;0.43;;;0.43;;
21721;SDS011;11023;48.274;7.794;2023-11-21T12:09:28;0.80;;;0.80;;
21721;SDS011;11023;48.274;7.794;2023-11-21T12:11:55;4.28;;;1.20;;
21721;SDS011;11023;48.274;7.794;2023-11-21T12:14:25;1.42;;;0.88;;
21721;SDS011;11023;48.274;7.794;2023-11-21T12:16:51;1.27;;;0.82;;
21721;SDS011;11023;48.274;7.794;2023-11-21T12:19:17;2.22;;;1.05;;
21721;SDS011;11023;48.274;7.794;2023-11-21T12:21:43;6.15;;;1.08;;
21721;SDS011;11023;48.274;7.794;2023-11-21T12:24:13;1.77;;;0.90;;
21721;SDS011;11023;48.274;7.794;2023-11-21T12:26:40;5.10;;;1.10;;
21721;SDS011;11023;48.274;7.794;2023-11-21T12:29:05;3.33;;;1.35;;
21721;SDS011;11023;48.274;7.794;2023-11-21T12:31:33;3.15;;;0.90;;
21721;SDS011;11023;48.274;7.794;2023-11-21T12:33:59;2.53;;;1.52;;
21721;SDS011;11023;48.274;7.794;2023-11-21T12:36:26;2.08;;;1.25;;
21721;SDS011;11023;48.274;7.794;2023-11-21T12:38:54;2.45;;;1.20;;
21721;SDS011;11023;48.274;7.794;2023-11-21T12:41:19;2.47;;;1.35;;
21721;SDS011;11023;48.274;7.794;2023-11-21T12:43:46;2.95;;;1.75;;
21721;SDS011;11023;48.274;7.794;2023-11-21T12:46:12;2.47;;;1.92;;
21721;SDS011;11023;48.274;7.794;2023-11-21T12:48:43;3.08;;;1.13;;
21721;SDS011;11023;48.274;7.794;2023-11-21T12:51:11;2.42;;;1.38;;
21721;SDS011;11023;48.274;7.794;2023-11-21T12:53:40;2.17;;;1.42;;
21721;SDS011;11023;48.274;7.794;2023-11-21T12:56:09;2.30;;;1.63;;
21721;SDS011;11023;48.274;7.794;2023-11-21T12:58:36;3.50;;;1.58;;
21721;SDS011;11023;48.274;7.794;2023-11-21T13:01:04;2.40;;;1.25;;
21721;SDS011;11023;48.274;7.794;2023-11-21T13:03:38;1.85;;;1.08;;
21721;SDS011;11023;48.274;7.794;2023-11-21T13:06:05;1.95;;;1.20;;
21721;SDS011;11023;48.274;7.794;2023-11-21T13:08:32;2.42;;;1.13;;
21721;SDS011;11023;48.274;7.794;2023-11-21T13:10:59;2.10;;;1.10;;
21721;SDS011;11023;48.274;7.794;2023-11-21T13:13:26;0.98;;;0.70;;
21721;SDS011;11023;48.274;7.794;2023-11-21T13:15:54;1.17;;;0.75;;
21721;SDS011;11023;48.274;7.794;2023-11-21T13:18:21;2.25;;;1.10;;
21721;SDS011;11023;48.274;7.794;2023-11-21T13:20:48;1.65;;;0.93;;
21721;SDS011;11023;48.274;7.794;2023-11-21T13:23:15;0.88;;;0.60;;
21721;SDS011;11023;48.274;7.794;2023-11-21T13:25:41;1.50;;;0.60;;
21721;SDS011;11023;48.274;7.794;2023-11-21T13:28:10;0.63;;;0.40;;
21721;SDS011;11023;48.274;7.794;2023-11-21T13:30:36;0.47;;;0.38;;
21721;SDS011;11023;48.274;7.794;2023-11-21T13:33:04;0.30;;;0.30;;
21721;SDS011;11023;48.274;7.794;2023-11-21T13:35:33;1.63;;;0.40;;
21721;SDS011;11023;48.274;7.794;2023-11-21T13:38:07;0.50;;;0.35;;
21721;SDS011;11023;48.274;7.794;2023-11-21T13:40:35;0.63;;;0.50;;
21721;SDS011;11023;48.274;7.794;2023-11-21T13:43:10;0.45;;;0.40;;
21721;SDS011;11023;48.274;7.794;2023-11-21T13:45:38;0.90;;;0.40;;
21721;SDS011;11023;48.274;7.794;2023-11-21T13:48:05;0.82;;;0.63;;
21721;SDS011;11023;48.274;7.794;2023-11-21T13:50:35;1.25;;;0.65;;
21721;SDS011;11023;48.274;7.794;2023-11-21T13:53:02;1.80;;;0.52;;
21721;SDS011;11023;48.274;7.794;2023-11-21T13:55:55;0.93;;;0.63;;
21721;SDS011;11023;48.274;7.794;2023-11-21T13:58:22;1.92;;;1.00;;
21721;SDS011;11023;48.274;7.794;2023-11-21T14:01:00;3.08;;;0.80;;
21721;SDS011;11023;48.274;7.794;2023-11-21T14:03:31;0.95;;;0.55;;
21721;SDS011;11023;48.274;7.794;2023-11-21T14:06:09;1.67;;;0.80;;
21721;SDS011;11023;48.274;7.794;2023-11-21T14:08:39;1.60;;;0.82;;
21721;SDS011;11023;48.274;7.794;2023-11-21T14:11:06;1.30;;;1.00;;
21721;SDS011;11023;48.274;7.794;2023-11-21T14:13:32;2.45;;;1.02;;
21721;SDS011;11023;48.274;7.794;2023-11-21T14:15:58;1.85;;;0.90;;
21721;SDS011;11023;48.274;7.794;2023-11-21T14:18:27;2.03;;;1.10;;
21721;SDS011;11023;48.274;7.794;2023-11-21T14:21:03;1.77;;;1.13;;
21721;SDS011;11023;48.274;7.794;2023-11-21T14:23:33;1.52;;;0.95;;
21721;SDS011;11023;48.274;7.794;2023-11-21T14:26:01;3.53;;;1.10;;
21721;SDS011;11023;48.274;7.794;2023-11-21T14:28:26;2.40;;;1.15;;
21721;SDS011;11023;48.274;7.794;2023-11-21T14:30:52;1.75;;;0.90;;
21721;SDS011;11023;48.274;7.794;2023-11-21T14:33:18;0.73;;;0.60;;
21721;SDS011;11023;48.274;7.794;2023-11-21T14:35:44;0.85;;;0.50;;
21721;SDS011;11023;48.274;7.794;2023-11-21T14:38:10;1.65;;;0.38;;
21721;SDS011;11023;48.274;7.794;2023-11-21T14:40:38;0.57;;;0.43;;
21721;SDS011;11023;48.274;7.794;2023-11-21T14:43:04;0.38;;;0.32;;
21721;SDS011;11023;48.274;7.794;2023-11-21T14:45:33;0.45;;;0.30;;
21721;SDS011;11023;48.274;7.794;2023-11-21T14:47:59;0.50;;;0.32;;
21721;SDS011;11023;48.274;7.794;2023-11-21T14:50:41;0.75;;;0.50;;
21721;SDS011;11023;48.274;7.794;2023-11-21T14:53:08;2.25;;;0.32;;
21721;SDS011;11023;48.274;7.794;2023-11-21T14:55:34;2.33;;;0.40;;
21721;SDS011;11023;48.274;7.794;2023-11-21T14:58:16;0.40;;;0.30;;
21721;SDS011;11023;48.274;7.794;2023-11-21T15:00:51;0.30;;;0.25;;
21721;SDS011;11023;48.274;7.794;2023-11-21T15:03:27;0.57;;;0.30;;
21721;SDS011;11023;48.274;7.794;2023-11-21T15:05:57;0.67;;;0.30;;
21721;SDS011;11023;48.274;7.794;2023-11-21T15:08:24;0.55;;;0.40;;